sensor_id;sensor_type;location;lat;lon;timestamp;pressure;altitude;pressure_sealevel;temperature;humidity
73240;BME280;61452;40.054;4.110;2023-05-19T00:01:47;101740.63;;;19.89;56.44
73240;BME280;61452;40.054;4.110;2023-05-19T00:06:50;101729.97;;;19.89;57.27
73240;BME280;61452;40.054;4.110;2023-05-19T00:11:53;101725.59;;;19.88;56.92
73240;BME280;61452;40.054;4.110;2023-05-19T00:16:55;101719.66;;;19.84;57.07
73240;BME280;61452;40.054;4.110;2023-05-19T00:21:58;101720.53;;;19.85;56.11
73240;BME280;61452;40.054;4.110;2023-05-19T00:27:00;101710.47;;;19.88;56.62
73240;BME280;61452;40.054;4.110;2023-05-19T00:32:03;101706.25;;;19.86;57.12
73240;BME280;61452;40.054;4.110;2023-05-19T00:37:05;101695.69;;;19.84;57.32
73240;BME280;61452;40.054;4.110;2023-05-19T00:42:08;101700.69;;;19.89;56.36
73240;BME280;61452;40.054;4.110;2023-05-19T00:47:10;101693.78;;;19.86;56.91
73240;BME280;61452;40.054;4.110;2023-05-19T00:52:12;101685.91;;;19.85;57.44
73240;BME280;61452;40.054;4.110;2023-05-19T00:57:14;101684.94;;;19.86;57.81
73240;BME280;61452;40.054;4.110;2023-05-19T01:02:16;101669.94;;;19.85;56.68
73240;BME280;61452;40.054;4.110;2023-05-19T01:07:19;101670.69;;;19.87;56.39
73240;BME280;61452;40.054;4.110;2023-05-19T01:12:21;101666.41;;;19.84;57.30
73240;BME280;61452;40.054;4.110;2023-05-19T01:33:13;101649.47;;;19.85;57.82
73240;BME280;61452;40.054;4.110;2023-05-19T01:38:17;101657.47;;;19.85;58.52
73240;BME280;61452;40.054;4.110;2023-05-19T01:43:24;101655.66;;;19.86;58.05
73240;BME280;61452;40.054;4.110;2023-05-19T01:48:27;101638.72;;;19.87;57.78
73240;BME280;61452;40.054;4.110;2023-05-19T01:53:31;101629.75;;;19.88;58.45
73240;BME280;61452;40.054;4.110;2023-05-19T01:58:40;101634.47;;;19.84;58.96
73240;BME280;61452;40.054;4.110;2023-05-19T02:04:18;101640.63;;;19.85;59.24
73240;BME280;61452;40.054;4.110;2023-05-19T02:19:49;101617.63;;;19.84;59.01
73240;BME280;61452;40.054;4.110;2023-05-19T02:24:51;101615.94;;;19.83;59.28
73240;BME280;61452;40.054;4.110;2023-05-19T02:29:53;101613.41;;;19.81;58.00
73240;BME280;61452;40.054;4.110;2023-05-19T02:34:55;101600.72;;;19.85;58.14
73240;BME280;61452;40.054;4.110;2023-05-19T02:39:58;101602.63;;;19.83;58.59
73240;BME280;61452;40.054;4.110;2023-05-19T02:45:00;101598.38;;;19.80;59.36
73240;BME280;61452;40.054;4.110;2023-05-19T02:50:03;101601.78;;;19.82;58.10
73240;BME280;61452;40.054;4.110;2023-05-19T02:55:06;101598.16;;;19.83;58.33
73240;BME280;61452;40.054;4.110;2023-05-19T03:00:08;101607.09;;;19.82;59.33
73240;BME280;61452;40.054;4.110;2023-05-19T03:05:11;101599.25;;;19.81;59.82
73240;BME280;61452;40.054;4.110;2023-05-19T03:10:13;101602.75;;;19.81;58.51
73240;BME280;61452;40.054;4.110;2023-05-19T03:15:15;101607.22;;;19.81;58.17
73240;BME280;61452;40.054;4.110;2023-05-19T03:20:17;101612.22;;;19.85;58.83
73240;BME280;61452;40.054;4.110;2023-05-19T03:25:20;101604.22;;;19.85;58.85
73240;BME280;61452;40.054;4.110;2023-05-19T03:30:23;101592.09;;;19.81;59.59
73240;BME280;61452;40.054;4.110;2023-05-19T03:35:45;101582.63;;;19.77;59.13
73240;BME280;61452;40.054;4.110;2023-05-19T03:40:48;101588.69;;;19.79;58.89
73240;BME280;61452;40.054;4.110;2023-05-19T03:45:50;101599.56;;;19.76;58.97
73240;BME280;61452;40.054;4.110;2023-05-19T03:51:12;101584.19;;;19.68;59.34
73240;BME280;61452;40.054;4.110;2023-05-19T03:56:15;101595.19;;;19.75;58.89
73240;BME280;61452;40.054;4.110;2023-05-19T04:01:18;101611.50;;;19.70;59.07
73240;BME280;61452;40.054;4.110;2023-05-19T04:06:20;101606.84;;;19.74;58.84
73240;BME280;61452;40.054;4.110;2023-05-19T04:11:24;101613.72;;;19.76;59.22
73240;BME280;61452;40.054;4.110;2023-05-19T04:16:26;101608.66;;;19.73;59.26
73240;BME280;61452;40.054;4.110;2023-05-19T04:21:28;101616.63;;;19.73;58.81
73240;BME280;61452;40.054;4.110;2023-05-19T04:26:30;101616.50;;;19.75;59.16
73240;BME280;61452;40.054;4.110;2023-05-19T04:31:35;101612.03;;;19.75;59.48
73240;BME280;61452;40.054;4.110;2023-05-19T04:36:40;101609.50;;;19.74;59.67
73240;BME280;61452;40.054;4.110;2023-05-19T04:41:43;101599.91;;;19.71;59.18
73240;BME280;61452;40.054;4.110;2023-05-19T04:46:46;101605.84;;;19.75;59.00
73240;BME280;61452;40.054;4.110;2023-05-19T04:51:49;101606.09;;;19.72;59.32
73240;BME280;61452;40.054;4.110;2023-05-19T04:56:59;101606.09;;;19.72;59.33
73240;BME280;61452;40.054;4.110;2023-05-19T05:02:04;101604.38;;;19.71;58.79
73240;BME280;61452;40.054;4.110;2023-05-19T05:07:06;101602.38;;;19.74;59.54
73240;BME280;61452;40.054;4.110;2023-05-19T05:12:09;101606.84;;;19.74;59.60
73240;BME280;61452;40.054;4.110;2023-05-19T05:17:13;101596.41;;;19.71;59.89
73240;BME280;61452;40.054;4.110;2023-05-19T05:22:17;101612.25;;;19.72;59.18
73240;BME280;61452;40.054;4.110;2023-05-19T05:27:21;101605.22;;;19.71;59.11
73240;BME280;61452;40.054;4.110;2023-05-19T05:32:23;101599.91;;;19.71;59.41
73240;BME280;61452;40.054;4.110;2023-05-19T05:37:26;101587.56;;;19.70;59.70
73240;BME280;61452;40.054;4.110;2023-05-19T05:42:28;101589.38;;;19.70;59.07
73240;BME280;61452;40.054;4.110;2023-05-19T05:47:31;101586.00;;;19.68;58.87
73240;BME280;61452;40.054;4.110;2023-05-19T05:52:35;101566.38;;;19.69;59.40
73240;BME280;61452;40.054;4.110;2023-05-19T05:57:40;101573.53;;;19.68;59.45
73240;BME280;61452;40.054;4.110;2023-05-19T06:02:48;101581.38;;;19.70;59.17
73240;BME280;61452;40.054;4.110;2023-05-19T06:07:52;101579.56;;;19.70;58.93
73240;BME280;61452;40.054;4.110;2023-05-19T06:12:59;101577.56;;;19.74;58.68
73240;BME280;61452;40.054;4.110;2023-05-19T06:18:01;101575.34;;;19.68;59.74
73240;BME280;61452;40.054;4.110;2023-05-19T06:23:03;101568.06;;;19.70;58.97
73240;BME280;61452;40.054;4.110;2023-05-19T06:28:05;101579.56;;;19.70;58.90
73240;BME280;61452;40.054;4.110;2023-05-19T06:33:07;101572.69;;;19.68;58.76
73240;BME280;61452;40.054;4.110;2023-05-19T06:38:10;101590.56;;;19.66;59.09
73240;BME280;61452;40.054;4.110;2023-05-19T06:43:12;101599.31;;;19.68;58.52
73240;BME280;61452;40.054;4.110;2023-05-19T06:48:34;101589.25;;;19.71;58.26
73240;BME280;61452;40.054;4.110;2023-05-19T06:53:37;101582.47;;;19.67;58.58
73240;BME280;61452;40.054;4.110;2023-05-19T06:58:42;101580.78;;;19.66;58.59
73240;BME280;61452;40.054;4.110;2023-05-19T07:03:45;101582.34;;;19.69;58.21
73240;BME280;61452;40.054;4.110;2023-05-19T07:08:48;101586.69;;;19.70;57.82
73240;BME280;61452;40.054;4.110;2023-05-19T07:13:52;101587.66;;;19.69;57.56
73240;BME280;61452;40.054;4.110;2023-05-19T07:18:59;101595.66;;;19.69;57.95
73240;BME280;61452;40.054;4.110;2023-05-19T07:24:02;101599.06;;;19.71;58.12
73240;BME280;61452;40.054;4.110;2023-05-19T07:29:04;101606.09;;;19.72;57.67
73240;BME280;61452;40.054;4.110;2023-05-19T07:34:07;101598.31;;;19.69;57.97
73240;BME280;61452;40.054;4.110;2023-05-19T07:39:09;101601.09;;;19.67;58.46
73240;BME280;61452;40.054;4.110;2023-05-19T07:44:12;101608.84;;;19.70;58.14
73240;BME280;61452;40.054;4.110;2023-05-19T07:49:14;101611.41;;;19.72;57.79
73240;BME280;61452;40.054;4.110;2023-05-19T07:54:16;101610.66;;;19.70;58.64
73240;BME280;61452;40.054;4.110;2023-05-19T07:59:19;101606.28;;;19.69;58.35
73240;BME280;61452;40.054;4.110;2023-05-19T08:04:21;101610.81;;;19.68;57.69
73240;BME280;61452;40.054;4.110;2023-05-19T08:09:23;101602.56;;;19.71;57.60
73240;BME280;61452;40.054;4.110;2023-05-19T08:14:25;101608.00;;;19.70;58.16
73240;BME280;61452;40.054;4.110;2023-05-19T08:19:28;101606.44;;;19.67;58.39
73240;BME280;61452;40.054;4.110;2023-05-19T08:24:30;101605.47;;;19.68;58.13
73240;BME280;61452;40.054;4.110;2023-05-19T08:29:34;101608.84;;;19.70;57.41
73240;BME280;61452;40.054;4.110;2023-05-19T08:34:37;101604.38;;;19.71;57.74
73240;BME280;61452;40.054;4.110;2023-05-19T08:39:39;101612.38;;;19.71;57.93
73240;BME280;61452;40.054;4.110;2023-05-19T08:44:41;101607.78;;;19.73;58.38
73240;BME280;61452;40.054;4.110;2023-05-19T08:49:45;101617.59;;;19.72;57.72
73240;BME280;61452;40.054;4.110;2023-05-19T08:54:52;101622.91;;;19.72;57.76
73240;BME280;61452;40.054;4.110;2023-05-19T08:59:55;101607.16;;;19.69;58.31
73240;BME280;61452;40.054;4.110;2023-05-19T09:04:58;101603.53;;;19.70;57.49
73240;BME280;61452;40.054;4.110;2023-05-19T09:10:01;101607.03;;;19.71;57.35
73240;BME280;61452;40.054;4.110;2023-05-19T09:15:04;101600.66;;;19.73;58.05
73240;BME280;61452;40.054;4.110;2023-05-19T09:20:07;101605.22;;;19.71;58.66
73240;BME280;61452;40.054;4.110;2023-05-19T09:30:20;101604.38;;;19.71;57.58
73240;BME280;61452;40.054;4.110;2023-05-19T09:35:22;101578.25;;;19.76;57.89
73240;BME280;61452;40.054;4.110;2023-05-19T09:40:27;101571.97;;;19.77;58.59
73240;BME280;61452;40.054;4.110;2023-05-19T09:45:29;101568.72;;;19.73;57.47
73240;BME280;61452;40.054;4.110;2023-05-19T09:50:32;101560.09;;;19.70;57.48
73240;BME280;61452;40.054;4.110;2023-05-19T09:55:34;101576.47;;;19.76;58.62
73240;BME280;61452;40.054;4.110;2023-05-19T10:00:37;101561.22;;;19.78;58.63
73240;BME280;61452;40.054;4.110;2023-05-19T10:05:39;101548.13;;;19.75;57.62
73240;BME280;61452;40.054;4.110;2023-05-19T10:10:45;101541.44;;;19.70;57.45
73240;BME280;61452;40.054;4.110;2023-05-19T10:15:49;101543.78;;;19.74;57.73
73240;BME280;61452;40.054;4.110;2023-05-19T10:20:56;101533.00;;;19.76;59.55
73240;BME280;61452;40.054;4.110;2023-05-19T10:26:00;101546.22;;;19.77;58.08
73240;BME280;61452;40.054;4.110;2023-05-19T10:31:08;101531.31;;;19.75;58.59
73240;BME280;61452;40.054;4.110;2023-05-19T10:42:03;101535.81;;;19.74;58.44
73240;BME280;61452;40.054;4.110;2023-05-19T10:47:08;101519.84;;;19.74;58.08
73240;BME280;61452;40.054;4.110;2023-05-19T10:52:20;101524.31;;;19.74;58.33
73240;BME280;61452;40.054;4.110;2023-05-19T10:57:26;101516.81;;;19.79;59.13
73240;BME280;61452;40.054;4.110;2023-05-19T11:02:41;101514.91;;;19.81;60.10
73240;BME280;61452;40.054;4.110;2023-05-19T11:07:55;101504.69;;;19.75;57.91
73240;BME280;61452;40.054;4.110;2023-05-19T11:13:03;101498.53;;;19.74;57.95
73240;BME280;61452;40.054;4.110;2023-05-19T11:18:07;101501.59;;;19.81;58.61
73240;BME280;61452;40.054;4.110;2023-05-19T11:23:13;101498.94;;;19.81;59.22
73240;BME280;61452;40.054;4.110;2023-05-19T11:28:20;101487.53;;;19.79;58.08
73240;BME280;61452;40.054;4.110;2023-05-19T11:33:27;101483.28;;;19.76;58.46
73240;BME280;61452;40.054;4.110;2023-05-19T11:38:29;101481.09;;;19.82;58.73
73240;BME280;61452;40.054;4.110;2023-05-19T11:43:32;101482.69;;;19.84;59.82
73240;BME280;61452;40.054;4.110;2023-05-19T11:48:34;101485.63;;;19.81;58.76
73240;BME280;61452;40.054;4.110;2023-05-19T11:53:36;101475.94;;;19.80;58.84
73240;BME280;61452;40.054;4.110;2023-05-19T11:58:39;101464.53;;;19.78;58.57
73240;BME280;61452;40.054;4.110;2023-05-19T12:03:42;101457.03;;;19.83;59.38
73240;BME280;61452;40.054;4.110;2023-05-19T12:08:44;101450.75;;;19.84;59.83
73240;BME280;61452;40.054;4.110;2023-05-19T12:13:46;101448.34;;;19.81;58.85
73240;BME280;61452;40.054;4.110;2023-05-19T12:18:48;101451.81;;;19.82;58.75
73240;BME280;61452;40.054;4.110;2023-05-19T12:23:51;101446.28;;;19.85;60.01
73240;BME280;61452;40.054;4.110;2023-05-19T12:28:53;101438.28;;;19.85;60.94
73240;BME280;61452;40.054;4.110;2023-05-19T12:33:55;101444.69;;;19.82;59.45
73240;BME280;61452;40.054;4.110;2023-05-19T12:38:58;101442.16;;;19.81;59.57
73240;BME280;61452;40.054;4.110;2023-05-19T12:44:00;101440.34;;;19.81;60.03
73240;BME280;61452;40.054;4.110;2023-05-19T12:49:02;101450.88;;;19.83;61.33
73240;BME280;61452;40.054;4.110;2023-05-19T12:54:04;101453.66;;;19.81;60.49
73240;BME280;61452;40.054;4.110;2023-05-19T12:59:06;101449.16;;;19.82;60.44
73240;BME280;61452;40.054;4.110;2023-05-19T13:04:08;101451.81;;;19.82;60.28
73240;BME280;61452;40.054;4.110;2023-05-19T13:09:11;101436.84;;;19.81;61.23
73240;BME280;61452;40.054;4.110;2023-05-19T13:14:16;101440.47;;;19.79;61.30
73240;BME280;61452;40.054;4.110;2023-05-19T13:19:19;101441.31;;;19.80;59.89
73240;BME280;61452;40.054;4.110;2023-05-19T13:24:24;101440.34;;;19.81;59.92
73240;BME280;61452;40.054;4.110;2023-05-19T13:29:27;101440.22;;;19.83;60.39
73240;BME280;61452;40.054;4.110;2023-05-19T13:34:29;101428.13;;;19.78;61.53
73240;BME280;61452;40.054;4.110;2023-05-19T13:39:31;101411.88;;;19.70;60.98
73240;BME280;61452;40.054;4.110;2023-05-19T13:44:33;101424.50;;;19.79;60.30
73240;BME280;61452;40.054;4.110;2023-05-19T13:49:35;101421.72;;;19.81;60.20
73240;BME280;61452;40.054;4.110;2023-05-19T13:54:38;101405.59;;;19.71;61.53
73240;BME280;61452;40.054;4.110;2023-05-19T13:59:40;101419.38;;;19.76;62.29
73240;BME280;61452;40.054;4.110;2023-05-19T14:05:12;101410.44;;;19.77;59.85
73240;BME280;61452;40.054;4.110;2023-05-19T14:10:14;101404.91;;;19.81;60.90
73240;BME280;61452;40.054;4.110;2023-05-19T14:15:16;101411.88;;;19.82;60.83
73240;BME280;61452;40.054;4.110;2023-05-19T14:20:18;101408.53;;;19.79;62.19
73240;BME280;61452;40.054;4.110;2023-05-19T14:25:20;101414.91;;;19.77;62.36
73240;BME280;61452;40.054;4.110;2023-05-19T14:30:22;101396.06;;;19.80;61.82
73240;BME280;61452;40.054;4.110;2023-05-19T14:35:24;101402.22;;;19.81;61.54
73240;BME280;61452;40.054;4.110;2023-05-19T14:40:26;101408.41;;;19.81;61.83
73240;BME280;61452;40.054;4.110;2023-05-19T14:45:28;101411.41;;;19.76;62.46
73240;BME280;61452;40.054;4.110;2023-05-19T14:50:30;101395.44;;;19.76;62.16
73240;BME280;61452;40.054;4.110;2023-05-19T14:55:33;101402.56;;;19.76;60.98
73240;BME280;61452;40.054;4.110;2023-05-19T15:00:35;101404.03;;;19.80;61.08
73240;BME280;61452;40.054;4.110;2023-05-19T15:05:37;101402.47;;;19.77;61.63
73240;BME280;61452;40.054;4.110;2023-05-19T15:10:40;101386.84;;;19.73;62.25
73240;BME280;61452;40.054;4.110;2023-05-19T15:15:43;101390.97;;;19.77;61.61
73240;BME280;61452;40.054;4.110;2023-05-19T15:20:47;101390.84;;;19.78;61.31
73240;BME280;61452;40.054;4.110;2023-05-19T15:25:49;101382.00;;;19.78;61.66
73240;BME280;61452;40.054;4.110;2023-05-19T15:30:51;101393.72;;;19.75;62.19
73240;BME280;61452;40.054;4.110;2023-05-19T15:35:53;101395.44;;;19.76;62.15
73240;BME280;61452;40.054;4.110;2023-05-19T15:40:55;101388.28;;;19.77;61.54
73240;BME280;61452;40.054;4.110;2023-05-19T15:45:57;101377.53;;;19.78;61.31
73240;BME280;61452;40.054;4.110;2023-05-19T15:51:00;101396.28;;;19.77;61.70
73240;BME280;61452;40.054;4.110;2023-05-19T15:56:02;101387.56;;;19.75;62.31
73240;BME280;61452;40.054;4.110;2023-05-19T16:01:06;101387.34;;;19.78;61.56
73240;BME280;61452;40.054;4.110;2023-05-19T16:06:08;101383.81;;;19.77;60.83
73240;BME280;61452;40.054;4.110;2023-05-19T16:11:10;101377.66;;;19.77;61.46
73240;BME280;61452;40.054;4.110;2023-05-19T16:16:12;101371.72;;;19.73;61.81
73240;BME280;61452;40.054;4.110;2023-05-19T16:21:14;101375.09;;;19.75;61.74
73240;BME280;61452;40.054;4.110;2023-05-19T16:26:16;101375.09;;;19.75;60.84
73240;BME280;61452;40.054;4.110;2023-05-19T16:31:18;101368.69;;;19.78;60.61
73240;BME280;61452;40.054;4.110;2023-05-19T16:36:20;101363.00;;;19.71;61.04
73240;BME280;61452;40.054;4.110;2023-05-19T16:41:23;101360.81;;;19.65;61.46
73240;BME280;61452;40.054;4.110;2023-05-19T16:46:25;101370.63;;;19.76;60.95
73240;BME280;61452;40.054;4.110;2023-05-19T16:51:30;101353.44;;;19.69;61.11
73240;BME280;61452;40.054;4.110;2023-05-19T16:56:32;101367.25;;;19.74;61.24
73240;BME280;61452;40.054;4.110;2023-05-19T17:01:34;101374.50;;;19.72;62.12
73240;BME280;61452;40.054;4.110;2023-05-19T17:06:36;101372.69;;;19.72;61.66
73240;BME280;61452;40.054;4.110;2023-05-19T17:11:39;101363.59;;;19.75;61.71
73240;BME280;61452;40.054;4.110;2023-05-19T17:16:41;101365.28;;;19.76;61.60
73240;BME280;61452;40.054;4.110;2023-05-19T17:21:43;101355.38;;;19.78;62.00
73240;BME280;61452;40.054;4.110;2023-05-19T17:26:45;101359.38;;;19.72;62.70
73240;BME280;61452;40.054;4.110;2023-05-19T17:31:47;101369.19;;;19.72;62.21
73240;BME280;61452;40.054;4.110;2023-05-19T17:36:49;101367.38;;;19.72;61.84
73240;BME280;61452;40.054;4.110;2023-05-19T17:41:51;101361.94;;;19.74;61.98
73240;BME280;61452;40.054;4.110;2023-05-19T17:46:54;101364.44;;;19.75;62.68
73240;BME280;61452;40.054;4.110;2023-05-19T17:51:56;101361.19;;;19.72;63.05
73240;BME280;61452;40.054;4.110;2023-05-19T17:57:01;101364.06;;;19.69;62.81
73240;BME280;61452;40.054;4.110;2023-05-19T18:02:07;101358.91;;;19.67;62.59
73240;BME280;61452;40.054;4.110;2023-05-19T18:07:11;101358.03;;;19.67;62.64
73240;BME280;61452;40.054;4.110;2023-05-19T18:12:14;101361.56;;;19.67;62.81
73240;BME280;61452;40.054;4.110;2023-05-19T18:17:16;101361.56;;;19.67;62.70
73240;BME280;61452;40.054;4.110;2023-05-19T18:22:19;101358.03;;;19.67;62.47
73240;BME280;61452;40.054;4.110;2023-05-19T18:27:21;101373.75;;;19.70;62.18
73240;BME280;61452;40.054;4.110;2023-05-19T18:32:23;101380.19;;;19.67;62.58
73240;BME280;61452;40.054;4.110;2023-05-19T18:37:25;101381.16;;;19.66;62.71
73240;BME280;61452;40.054;4.110;2023-05-19T18:42:27;101379.22;;;19.68;62.46
73240;BME280;61452;40.054;4.110;2023-05-19T18:47:29;101390.69;;;19.69;62.25
73240;BME280;61452;40.054;4.110;2023-05-19T18:52:31;101380.19;;;19.67;62.34
73240;BME280;61452;40.054;4.110;2023-05-19T18:57:34;101379.09;;;19.70;62.45
73240;BME280;61452;40.054;4.110;2023-05-19T19:02:36;101374.59;;;19.70;61.67
73240;BME280;61452;40.054;4.110;2023-05-19T19:07:42;101380.78;;;19.71;60.93
73240;BME280;61452;40.054;4.110;2023-05-19T19:12:45;101383.44;;;19.71;60.92
73240;BME280;61452;40.054;4.110;2023-05-19T19:17:47;101373.91;;;19.68;61.15
73240;BME280;61452;40.054;4.110;2023-05-19T19:22:49;101379.22;;;19.68;61.18
73240;BME280;61452;40.054;4.110;2023-05-19T19:27:52;101381.88;;;19.68;60.08
73240;BME280;61452;40.054;4.110;2023-05-19T19:32:54;101380.78;;;19.71;60.84
73240;BME280;61452;40.054;4.110;2023-05-19T19:37:57;101386.09;;;19.71;60.77
73240;BME280;61452;40.054;4.110;2023-05-19T19:42:59;101398.56;;;19.70;60.72
73240;BME280;61452;40.054;4.110;2023-05-19T19:48:01;101398.81;;;19.67;60.02
73240;BME280;61452;40.054;4.110;2023-05-19T19:53:04;101416.25;;;19.71;60.27
73240;BME280;61452;40.054;4.110;2023-05-19T19:58:06;101416.97;;;19.73;61.08
73240;BME280;61452;40.054;4.110;2023-05-19T20:03:08;101417.19;;;19.70;60.11
73240;BME280;61452;40.054;4.110;2023-05-19T20:08:10;101410.19;;;19.69;59.85
73240;BME280;61452;40.054;4.110;2023-05-19T20:13:14;101416.34;;;19.70;60.12
73240;BME280;61452;40.054;4.110;2023-05-19T20:18:17;101410.91;;;19.71;60.71
73240;BME280;61452;40.054;4.110;2023-05-19T20:23:19;101422.41;;;19.72;60.88
73240;BME280;61452;40.054;4.110;2023-05-19T20:28:22;101428.69;;;19.71;60.03
73240;BME280;61452;40.054;4.110;2023-05-19T20:33:24;101414.31;;;19.62;59.04
73240;BME280;61452;40.054;4.110;2023-05-19T20:38:27;101441.78;;;19.74;59.75
73240;BME280;61452;40.054;4.110;2023-05-19T20:43:30;101424.22;;;19.71;60.34
73240;BME280;61452;40.054;4.110;2023-05-19T20:48:33;101436.78;;;19.69;59.19
73240;BME280;61452;40.054;4.110;2023-05-19T20:53:35;101436.78;;;19.69;58.59
73240;BME280;61452;40.054;4.110;2023-05-19T20:58:37;101439.34;;;19.71;59.69
73240;BME280;61452;40.054;4.110;2023-05-19T21:03:39;101434.03;;;19.71;60.30
73240;BME280;61452;40.054;4.110;2023-05-19T21:08:42;101442.97;;;19.70;59.38
73240;BME280;61452;40.054;4.110;2023-05-19T21:13:44;101424.34;;;19.70;58.58
73240;BME280;61452;40.054;4.110;2023-05-19T21:18:46;101435.72;;;19.72;59.81
73240;BME280;61452;40.054;4.110;2023-05-19T21:23:48;101426.16;;;19.69;60.16
73240;BME280;61452;40.054;4.110;2023-05-19T21:28:51;101422.53;;;19.70;59.52
73240;BME280;61452;40.054;4.110;2023-05-19T21:33:53;101415.50;;;19.69;58.37
73240;BME280;61452;40.054;4.110;2023-05-19T21:38:55;101419.63;;;19.73;59.67
73240;BME280;61452;40.054;4.110;2023-05-19T21:43:57;101416.84;;;19.75;59.11
73240;BME280;61452;40.054;4.110;2023-05-19T21:48:59;101417.19;;;19.70;58.64
73240;BME280;61452;40.054;4.110;2023-05-19T21:54:01;101402.34;;;19.68;58.61
73240;BME280;61452;40.054;4.110;2023-05-19T21:59:03;101401.84;;;19.74;58.82
73240;BME280;61452;40.054;4.110;2023-05-19T22:04:05;101407.88;;;19.76;59.79
73240;BME280;61452;40.054;4.110;2023-05-19T22:09:08;101395.69;;;19.73;58.93
73240;BME280;61452;40.054;4.110;2023-05-19T22:14:10;101396.00;;;19.69;58.50
73240;BME280;61452;40.054;4.110;2023-05-19T22:19:12;101401.97;;;19.72;59.38
73240;BME280;61452;40.054;4.110;2023-05-19T22:24:15;101398.19;;;19.75;59.99
73240;BME280;61452;40.054;4.110;2023-05-19T22:29:19;101402.94;;;19.71;58.71
73240;BME280;61452;40.054;4.110;2023-05-19T22:34:21;101400.25;;;19.71;58.70
73240;BME280;61452;40.054;4.110;2023-05-19T22:39:23;101398.47;;;19.72;59.22
73240;BME280;61452;40.054;4.110;2023-05-19T22:44:25;101387.69;;;19.73;60.99
73240;BME280;61452;40.054;4.110;2023-05-19T22:49:28;101386.97;;;19.71;61.74
73240;BME280;61452;40.054;4.110;2023-05-19T22:54:30;101383.34;;;19.72;60.44
73240;BME280;61452;40.054;4.110;2023-05-19T22:59:32;101371.94;;;19.70;59.75
73240;BME280;61452;40.054;4.110;2023-05-19T23:04:36;101380.69;;;19.72;60.92
73240;BME280;61452;40.054;4.110;2023-05-19T23:09:38;101355.75;;;19.62;61.88
73240;BME280;61452;40.054;4.110;2023-05-19T23:14:40;101364.44;;;19.64;60.80
73240;BME280;61452;40.054;4.110;2023-05-19T23:19:42;101364.81;;;19.71;60.08
73240;BME280;61452;40.054;4.110;2023-05-19T23:24:44;101356.59;;;19.74;61.26
73240;BME280;61452;40.054;4.110;2023-05-19T23:29:47;101339.03;;;19.71;61.36
73240;BME280;61452;40.054;4.110;2023-05-19T23:34:49;101336.75;;;19.67;61.97
73240;BME280;61452;40.054;4.110;2023-05-19T23:39:52;101341.97;;;19.68;61.37
73240;BME280;61452;40.054;4.110;2023-05-19T23:44:54;101318.00;;;19.68;61.34
73240;BME280;61452;40.054;4.110;2023-05-19T23:49:56;101327.56;;;19.71;60.44
73240;BME280;61452;40.054;4.110;2023-05-19T23:54:58;101305.19;;;19.62;62.32
